createdAt,value
2019-01-24T00:02:15.452Z,13.95
2019-01-24T00:04:43.231Z,12.78
2019-01-24T00:07:13.275Z,12.25
2019-01-24T00:09:41.128Z,13.28
2019-01-24T00:12:12.199Z,11.83
2019-01-24T00:14:40.055Z,10.35
2019-01-24T00:17:07.888Z,12.18
2019-01-24T00:19:36.579Z,11.73
2019-01-24T00:22:04.484Z,11.70
2019-01-24T00:24:32.303Z,11.35
2019-01-24T00:27:00.219Z,11.63
2019-01-24T00:29:28.049Z,11.68
2019-01-24T00:31:55.839Z,11.57
2019-01-24T00:34:24.119Z,10.00
2019-01-24T00:36:51.996Z,10.70
2019-01-24T00:39:22.541Z,10.00
2019-01-24T00:41:50.251Z,10.32
2019-01-24T00:44:18.129Z,10.53
2019-01-24T00:46:45.987Z,9.45
2019-01-24T00:49:15.843Z,10.80
2019-01-24T00:51:44.754Z,10.78
2019-01-24T00:54:12.434Z,10.70
2019-01-24T00:56:40.318Z,10.32
2019-01-24T00:59:09.388Z,11.80
2019-01-24T01:01:38.229Z,12.60
2019-01-24T01:04:06.526Z,12.95
2019-01-24T01:06:34.333Z,12.25
2019-01-24T01:09:02.638Z,13.15
2019-01-24T01:11:30.369Z,11.30
2019-01-24T01:13:58.174Z,11.48
2019-01-24T01:16:26.099Z,9.33
2019-01-24T01:18:53.912Z,9.80
2019-01-24T01:21:22.701Z,8.73
2019-01-24T01:23:52.503Z,9.25
2019-01-24T01:26:20.376Z,7.45
2019-01-24T01:28:48.366Z,6.62
2019-01-24T01:31:17.052Z,8.25
2019-01-24T01:33:44.792Z,8.05
2019-01-24T01:36:13.462Z,5.90
2019-01-24T01:38:42.464Z,7.05
2019-01-24T01:41:11.363Z,7.28
2019-01-24T01:43:39.217Z,6.58
2019-01-24T01:46:07.097Z,6.35
2019-01-24T01:48:34.915Z,6.97
2019-01-24T01:51:02.828Z,5.42
2019-01-24T01:53:30.758Z,5.53
2019-01-24T01:55:58.931Z,6.30
2019-01-24T01:58:26.589Z,6.53
2019-01-24T02:00:54.409Z,5.12
2019-01-24T02:03:24.203Z,5.28
2019-01-24T02:05:52.043Z,4.40
2019-01-24T02:08:21.261Z,4.78
2019-01-24T02:10:48.948Z,5.25
2019-01-24T02:13:18.843Z,5.40
2019-01-24T02:15:46.889Z,5.67
2019-01-24T02:18:14.881Z,6.28
2019-01-24T02:20:43.671Z,4.92
2019-01-24T02:23:11.767Z,5.67
2019-01-24T02:25:42.351Z,5.53
2019-01-24T02:28:10.232Z,4.67
2019-01-24T02:30:38.087Z,5.10
2019-01-24T02:33:06.041Z,4.75
2019-01-24T02:35:33.771Z,4.30
2019-01-24T02:38:01.704Z,5.45
2019-01-24T02:40:30.719Z,5.53
2019-01-24T02:42:58.680Z,4.53
2019-01-24T02:45:26.944Z,5.40
2019-01-24T02:47:54.760Z,4.95
2019-01-24T02:50:24.727Z,4.08
2019-01-24T02:52:52.612Z,4.10
2019-01-24T02:55:20.573Z,3.62
2019-01-24T02:57:49.354Z,4.12
2019-01-24T03:00:20.828Z,4.20
2019-01-24T03:02:49.220Z,4.15
2019-01-24T03:05:19.230Z,4.40
2019-01-24T03:07:47.303Z,3.25
2019-01-24T03:10:15.736Z,5.37
2019-01-24T03:12:43.633Z,2.22
2019-01-24T03:15:13.399Z,1.85
2019-01-24T03:17:43.625Z,2.02
2019-01-24T03:20:11.620Z,2.02
2019-01-24T03:22:40.087Z,1.95
2019-01-24T03:25:08.690Z,2.27
2019-01-24T03:27:36.817Z,2.15
2019-01-24T03:30:07.875Z,1.92
2019-01-24T03:32:35.652Z,1.60
2019-01-24T03:35:06.006Z,1.87
2019-01-24T03:37:34.152Z,1.98
2019-01-24T03:40:02.143Z,1.70
2019-01-24T03:42:29.976Z,2.20
2019-01-24T03:44:58.995Z,1.90
2019-01-24T03:47:27.429Z,2.00
2019-01-24T03:49:55.543Z,2.40
2019-01-24T03:52:24.623Z,2.30
2019-01-24T03:54:52.326Z,1.90
2019-01-24T03:57:20.350Z,2.70
2019-01-24T03:59:48.405Z,1.70
2019-01-24T04:02:18.881Z,1.77
2019-01-24T04:04:47.519Z,1.70
2019-01-24T04:07:15.926Z,1.40
2019-01-24T04:09:43.859Z,2.05
2019-01-24T04:12:12.886Z,1.10
2019-01-24T04:14:40.562Z,1.85
2019-01-24T04:17:08.221Z,1.75
2019-01-24T04:19:36.143Z,1.62
2019-01-24T04:22:04.054Z,1.65
2019-01-24T04:24:31.992Z,1.40
2019-01-24T04:27:02.577Z,1.40
2019-01-24T04:29:30.499Z,1.60
2019-01-24T04:31:58.455Z,1.20
2019-01-24T04:34:26.145Z,1.50
2019-01-24T04:36:53.863Z,1.00
2019-01-24T04:39:22.047Z,1.05
2019-01-24T04:41:50.173Z,1.27
2019-01-24T04:44:21.877Z,2.15
2019-01-24T04:46:49.647Z,1.40
2019-01-24T04:49:18.381Z,1.80
2019-01-24T04:51:46.203Z,1.50
2019-01-24T04:54:14.451Z,1.72
2019-01-24T04:56:42.355Z,1.60
2019-01-24T04:59:11.389Z,1.70
2019-01-24T05:01:42.357Z,1.80
2019-01-24T05:04:10.426Z,1.90
2019-01-24T05:06:38.320Z,2.10
2019-01-24T05:09:14.346Z,3.00
2019-01-24T05:11:42.239Z,4.50
2019-01-24T05:14:11.271Z,2.22
2019-01-24T05:16:38.930Z,1.82
2019-01-24T05:19:06.599Z,2.47
2019-01-24T05:21:34.957Z,3.75
2019-01-24T05:24:02.747Z,2.80
2019-01-24T05:26:30.445Z,2.47
2019-01-24T05:28:58.452Z,3.37
2019-01-24T05:31:26.417Z,3.50
2019-01-24T05:33:54.183Z,3.52
2019-01-24T05:36:27.862Z,2.20
2019-01-24T05:38:55.661Z,4.00
2019-01-24T05:41:23.664Z,3.85
2019-01-24T05:43:51.391Z,4.05
2019-01-24T05:46:19.344Z,4.20
2019-01-24T05:48:47.033Z,3.10
2019-01-24T05:51:15.072Z,4.17
2019-01-24T05:53:44.484Z,4.05
2019-01-24T05:56:12.185Z,5.85
2019-01-24T05:58:39.908Z,4.92
2019-01-24T06:01:09.524Z,4.87
2019-01-24T06:03:37.690Z,4.58
2019-01-24T06:06:05.470Z,3.70
2019-01-24T06:08:33.375Z,4.92
2019-01-24T06:11:01.642Z,5.25
2019-01-24T06:13:29.742Z,5.53
2019-01-24T06:15:57.760Z,5.20
2019-01-24T06:18:26.629Z,5.45
2019-01-24T06:20:54.315Z,4.72
2019-01-24T06:23:23.062Z,5.25
2019-01-24T06:25:50.865Z,5.90
2019-01-24T06:28:18.796Z,4.65
2019-01-24T06:30:46.759Z,4.72
2019-01-24T06:33:14.533Z,10.63
2019-01-24T06:35:48.462Z,37.88
2019-01-24T06:38:11.995Z,18.45
2019-01-24T06:40:39.714Z,6.62
2019-01-24T06:43:07.425Z,6.58
2019-01-24T06:45:35.225Z,6.33
2019-01-24T06:48:04.758Z,6.40
2019-01-24T06:50:33.369Z,6.35
2019-01-24T06:53:01.121Z,6.65
2019-01-24T06:55:29.728Z,5.95
2019-01-24T06:57:57.708Z,6.33
2019-01-24T07:00:26.940Z,5.65
2019-01-24T07:02:55.007Z,5.85
2019-01-24T07:05:22.979Z,5.90
2019-01-24T07:07:50.739Z,6.65
2019-01-24T07:10:19.460Z,6.33
2019-01-24T07:12:47.412Z,6.67
2019-01-24T07:15:17.637Z,7.22
2019-01-24T07:17:45.604Z,6.50
2019-01-24T07:20:17.061Z,7.05
2019-01-24T07:22:45.092Z,6.03
2019-01-24T07:25:17.580Z,7.17
2019-01-24T07:27:46.138Z,7.70
2019-01-24T07:30:15.197Z,8.30
2019-01-24T07:32:43.001Z,9.38
2019-01-24T07:35:12.998Z,7.50
2019-01-24T07:37:40.717Z,7.70
2019-01-24T07:40:10.153Z,7.83
2019-01-24T07:42:38.200Z,6.95
2019-01-24T07:45:12.099Z,7.62
2019-01-24T07:47:41.199Z,7.78
2019-01-24T07:50:10.563Z,6.87
2019-01-24T07:52:38.638Z,9.30
2019-01-24T07:55:08.473Z,7.28
2019-01-24T07:57:36.277Z,6.80
2019-01-24T08:00:09.248Z,7.33
2019-01-24T08:02:39.657Z,7.85
2019-01-24T08:05:09.484Z,8.08
2019-01-24T08:07:37.378Z,6.10
2019-01-24T08:10:06.736Z,6.12
2019-01-24T08:12:34.692Z,5.92
2019-01-24T08:15:02.815Z,7.45
2019-01-24T08:17:30.844Z,6.03
2019-01-24T08:19:58.519Z,4.60
2019-01-24T08:22:28.507Z,5.50
2019-01-24T08:24:56.434Z,6.67
2019-01-24T08:27:24.403Z,7.30
2019-01-24T08:29:52.202Z,8.10
2019-01-24T08:32:19.981Z,6.53
2019-01-24T08:34:47.892Z,7.62
2019-01-24T08:37:16.655Z,8.33
2019-01-24T08:39:44.490Z,8.23
2019-01-24T08:42:12.265Z,8.40
2019-01-24T08:44:40.174Z,8.50
2019-01-24T08:47:07.898Z,6.05
2019-01-24T08:49:35.918Z,6.95
2019-01-24T08:52:03.997Z,8.10
2019-01-24T08:54:32.082Z,8.65
2019-01-24T08:56:59.754Z,9.35
2019-01-24T08:59:29.772Z,9.28
2019-01-24T09:01:58.062Z,11.80
2019-01-24T09:04:27.218Z,13.20
2019-01-24T09:06:55.079Z,13.60
2019-01-24T09:09:24.933Z,13.70
2019-01-24T09:11:52.878Z,13.08
2019-01-24T09:14:20.664Z,11.45
2019-01-24T09:16:48.330Z,14.05
2019-01-24T09:19:20.538Z,12.25
2019-01-24T09:21:48.858Z,13.45
2019-01-24T09:24:16.657Z,15.65
2019-01-24T09:26:44.662Z,14.63
2019-01-24T09:29:12.373Z,18.07
2019-01-24T09:31:43.200Z,19.42
2019-01-24T09:34:11.480Z,19.17
2019-01-24T09:36:40.538Z,19.32
2019-01-24T09:39:08.368Z,18.77
2019-01-24T09:41:36.082Z,16.12
2019-01-24T09:44:04.403Z,16.52
2019-01-24T09:46:32.346Z,16.52
2019-01-24T09:49:00.300Z,13.45
2019-01-24T09:51:29.325Z,14.43
2019-01-24T09:53:57.226Z,13.58
2019-01-24T09:56:26.265Z,13.48
2019-01-24T09:58:54.303Z,13.45
2019-01-24T10:01:24.161Z,12.55
2019-01-24T10:03:52.164Z,13.55
2019-01-24T10:06:21.035Z,14.33
2019-01-24T10:08:49.371Z,13.38
2019-01-24T10:11:23.574Z,11.15
2019-01-24T10:13:50.473Z,10.63
2019-01-24T10:16:18.767Z,13.00
2019-01-24T10:18:46.656Z,10.80
2019-01-24T10:21:15.625Z,13.10
2019-01-24T10:23:43.520Z,9.15
2019-01-24T10:26:11.859Z,10.08
2019-01-24T10:28:39.654Z,11.68
2019-01-24T10:31:07.467Z,11.65
2019-01-24T10:33:35.397Z,10.60
2019-01-24T10:36:03.508Z,10.80
2019-01-24T10:38:31.862Z,10.00
2019-01-24T10:40:59.768Z,15.53
2019-01-24T10:43:31.000Z,15.93
2019-01-24T10:45:58.754Z,15.03
2019-01-24T10:48:26.697Z,15.30
2019-01-24T10:50:54.453Z,15.15
2019-01-24T10:53:23.688Z,16.52
2019-01-24T10:55:52.685Z,19.42
2019-01-24T10:58:22.690Z,16.52
2019-01-24T11:00:50.626Z,16.40
2019-01-24T11:03:19.852Z,16.82
2019-01-24T11:05:47.842Z,17.30
2019-01-24T11:08:18.133Z,15.72
2019-01-24T11:10:46.193Z,15.48
2019-01-24T11:13:16.131Z,18.60
2019-01-24T11:15:44.317Z,16.60
2019-01-24T11:18:12.363Z,19.00
2019-01-24T11:20:41.158Z,16.97
2019-01-24T11:23:09.972Z,18.37
2019-01-24T11:25:37.822Z,20.37
2019-01-24T11:28:11.064Z,19.10
2019-01-24T11:30:38.874Z,19.55
2019-01-24T11:33:07.155Z,20.37
2019-01-24T11:35:36.740Z,18.60
2019-01-24T11:38:04.871Z,25.02
2019-01-24T11:40:33.484Z,23.60
2019-01-24T11:43:01.261Z,21.17
2019-01-24T11:45:34.622Z,23.92
2019-01-24T11:48:04.095Z,21.85
2019-01-24T11:50:32.017Z,16.93
2019-01-24T11:52:59.828Z,16.23
2019-01-24T11:55:27.779Z,15.23
2019-01-24T11:57:55.493Z,11.90
2019-01-24T12:00:31.396Z,11.03
2019-01-24T12:02:59.150Z,11.63
2019-01-24T12:05:27.103Z,11.80
2019-01-24T12:07:55.332Z,12.33
2019-01-24T12:10:24.915Z,13.05
2019-01-24T12:12:52.975Z,12.70
2019-01-24T12:15:22.453Z,13.58
2019-01-24T12:17:50.474Z,12.50
2019-01-24T12:20:21.714Z,14.58
2019-01-24T12:22:50.596Z,13.43
2019-01-24T12:25:19.795Z,14.23
2019-01-24T12:27:47.719Z,13.62
2019-01-24T12:30:22.806Z,13.80
2019-01-24T12:32:50.730Z,13.68
2019-01-24T12:35:18.995Z,13.13
2019-01-24T12:37:47.783Z,13.32
2019-01-24T12:40:19.417Z,14.70
2019-01-24T12:42:47.125Z,12.95
2019-01-24T12:45:18.520Z,12.88
2019-01-24T12:47:46.526Z,14.45
2019-01-24T12:50:16.361Z,12.55
2019-01-24T12:52:44.410Z,13.55
2019-01-24T12:55:13.767Z,13.83
2019-01-24T12:57:41.699Z,13.70
2019-01-24T13:00:16.612Z,15.25
2019-01-24T13:02:44.460Z,12.85
2019-01-24T13:05:13.309Z,15.48
2019-01-24T13:07:43.487Z,15.60
2019-01-24T13:10:13.896Z,12.10
2019-01-24T13:12:41.691Z,13.08
2019-01-24T13:15:10.164Z,13.60
2019-01-24T13:17:38.126Z,12.80
2019-01-24T13:20:09.996Z,13.32
2019-01-24T13:22:37.995Z,13.90
2019-01-24T13:25:09.885Z,13.28
2019-01-24T13:27:37.846Z,12.60
2019-01-24T13:30:09.514Z,14.45
2019-01-24T13:32:37.571Z,14.55
2019-01-24T13:35:05.711Z,13.40
2019-01-24T13:37:33.768Z,12.98
2019-01-24T13:40:02.113Z,11.22
2019-01-24T13:42:30.599Z,12.25
2019-01-24T13:44:58.537Z,11.63
2019-01-24T13:47:26.615Z,13.32
2019-01-24T13:49:54.684Z,19.23
2019-01-24T13:52:24.762Z,12.58
2019-01-24T13:54:52.464Z,11.22
2019-01-24T13:57:20.183Z,12.43
2019-01-24T13:59:47.889Z,13.62
2019-01-24T14:02:17.757Z,11.55
2019-01-24T14:04:49.822Z,10.95
2019-01-24T14:07:19.634Z,11.38
2019-01-24T14:09:47.426Z,10.40
2019-01-24T14:12:15.366Z,11.22
2019-01-24T14:14:43.274Z,11.40
2019-01-24T14:17:12.288Z,10.60
2019-01-24T14:19:40.205Z,10.63
2019-01-24T14:22:09.355Z,12.10
2019-01-24T14:24:37.034Z,11.20
2019-01-24T14:27:05.073Z,12.10
2019-01-24T14:29:32.903Z,9.48
2019-01-24T14:32:00.693Z,12.28
2019-01-24T14:34:28.607Z,12.05
2019-01-24T14:36:56.547Z,9.53
2019-01-24T14:39:24.429Z,10.65
2019-01-24T14:41:52.147Z,12.15
2019-01-24T14:44:21.068Z,13.68
2019-01-24T14:46:49.099Z,13.28
2019-01-24T14:49:17.911Z,10.00
2019-01-24T14:51:45.654Z,11.70
2019-01-24T14:54:13.601Z,13.30
2019-01-24T14:56:41.378Z,13.68
2019-01-24T14:59:09.077Z,14.83
2019-01-24T15:01:37.121Z,13.65
2019-01-24T15:04:05.292Z,10.90
2019-01-24T15:06:32.957Z,11.20
2019-01-24T15:09:00.624Z,11.60
2019-01-24T15:11:28.586Z,10.63
2019-01-24T15:14:00.633Z,11.40
2019-01-24T15:16:29.948Z,13.95
2019-01-24T15:18:58.170Z,12.30
2019-01-24T15:21:25.944Z,13.32
2019-01-24T15:23:53.724Z,18.85
2019-01-24T15:26:21.665Z,12.20
2019-01-24T15:28:49.469Z,11.97
2019-01-24T15:31:18.568Z,11.45
2019-01-24T15:33:46.371Z,16.77
2019-01-24T15:36:14.305Z,15.58
2019-01-24T15:38:43.362Z,19.67
2019-01-24T15:41:12.798Z,16.17
2019-01-24T15:43:41.108Z,14.35
2019-01-24T15:46:09.174Z,9.85
2019-01-24T15:48:42.439Z,10.58
2019-01-24T15:51:07.221Z,10.82
2019-01-24T15:53:35.027Z,10.75
2019-01-24T15:56:02.863Z,10.43
2019-01-24T15:58:30.945Z,10.70
2019-01-24T16:00:59.026Z,12.78
2019-01-24T16:03:26.805Z,12.03
2019-01-24T16:05:54.875Z,10.88
2019-01-24T16:08:23.947Z,13.08
2019-01-24T16:10:51.743Z,12.78
2019-01-24T16:13:20.557Z,15.63
2019-01-24T16:15:48.710Z,12.07
2019-01-24T16:18:16.643Z,14.28
2019-01-24T16:20:44.424Z,16.70
2019-01-24T16:23:12.446Z,11.48
2019-01-24T16:25:42.879Z,14.40
2019-01-24T16:28:16.920Z,12.35
2019-01-24T16:30:44.653Z,10.13
2019-01-24T16:33:13.658Z,11.22
2019-01-24T16:35:42.691Z,9.25
2019-01-24T16:38:11.446Z,13.78
2019-01-24T16:40:40.442Z,11.15
2019-01-24T16:43:08.398Z,12.40
2019-01-24T16:45:36.374Z,14.90
2019-01-24T16:48:05.217Z,11.90
2019-01-24T16:50:33.226Z,13.28
2019-01-24T16:53:00.976Z,14.30
2019-01-24T16:55:28.958Z,12.45
2019-01-24T16:57:56.744Z,16.20
2019-01-24T17:00:36.830Z,13.08
2019-01-24T17:03:05.830Z,14.55
2019-01-24T17:05:33.734Z,14.95
2019-01-24T17:08:01.824Z,13.93
2019-01-24T17:10:29.504Z,14.05
2019-01-24T17:12:57.667Z,13.65
2019-01-24T17:15:26.867Z,14.68
2019-01-24T17:17:54.992Z,15.10
2019-01-24T17:20:25.556Z,15.78
2019-01-24T17:22:53.346Z,16.25
2019-01-24T17:25:23.788Z,16.25
2019-01-24T17:27:51.871Z,15.83
2019-01-24T17:30:23.704Z,14.98
2019-01-24T17:32:52.260Z,16.10
2019-01-24T17:35:21.340Z,15.50
2019-01-24T17:37:49.132Z,15.35
2019-01-24T17:40:25.663Z,16.87
2019-01-24T17:42:53.729Z,16.55
2019-01-24T17:45:21.664Z,17.65
2019-01-24T17:47:50.700Z,16.97
2019-01-24T17:50:26.023Z,16.52
2019-01-24T17:52:54.138Z,14.70
2019-01-24T17:55:34.195Z,14.03
2019-01-24T17:58:02.189Z,13.32
2019-01-24T18:00:32.629Z,13.40
2019-01-24T18:03:00.619Z,14.10
2019-01-24T18:05:28.603Z,16.97
2019-01-24T18:07:58.616Z,14.18
2019-01-24T18:10:26.486Z,15.00
2019-01-24T18:12:57.147Z,14.55
2019-01-24T18:15:27.078Z,16.07
2019-01-24T18:17:56.438Z,16.37
2019-01-24T18:20:26.878Z,16.50
2019-01-24T18:22:58.632Z,16.62
2019-01-24T18:25:26.729Z,15.13
2019-01-24T18:27:54.679Z,16.32
2019-01-24T18:30:24.826Z,17.23
2019-01-24T18:32:58.031Z,18.75
2019-01-24T18:35:26.654Z,18.40
2019-01-24T18:37:55.564Z,16.35
2019-01-24T18:40:25.217Z,17.05
2019-01-24T18:42:53.623Z,17.75
2019-01-24T18:45:33.709Z,16.65
2019-01-24T18:48:01.479Z,16.45
2019-01-24T18:50:30.328Z,13.60
2019-01-24T18:52:58.421Z,13.85
2019-01-24T18:55:26.610Z,16.30
2019-01-24T18:57:59.670Z,14.65
2019-01-24T19:00:38.734Z,13.05
2019-01-24T19:03:08.070Z,15.08
2019-01-24T19:05:36.239Z,13.72
2019-01-24T19:08:04.981Z,15.32
2019-01-24T19:10:33.058Z,15.25
2019-01-24T19:13:03.023Z,14.95
2019-01-24T19:15:32.357Z,16.27
2019-01-24T19:18:01.784Z,16.97
2019-01-24T19:20:29.710Z,17.77
2019-01-24T19:22:59.700Z,16.35
2019-01-24T19:25:27.594Z,16.15
2019-01-24T19:27:57.394Z,16.25
2019-01-24T19:30:27.310Z,15.88
2019-01-24T19:32:56.202Z,15.60
2019-01-24T19:35:24.554Z,16.12
2019-01-24T19:37:52.588Z,15.32
2019-01-24T19:40:22.448Z,16.05
2019-01-24T19:42:50.351Z,15.72
2019-01-24T19:45:21.055Z,17.23
2019-01-24T19:47:49.395Z,16.50
2019-01-24T19:50:19.754Z,15.08
2019-01-24T19:52:47.999Z,15.78
2019-01-24T19:55:15.921Z,16.02
2019-01-24T19:57:44.815Z,16.75
2019-01-24T20:00:15.684Z,16.02
2019-01-24T20:02:45.057Z,16.60
2019-01-24T20:05:14.327Z,16.45
2019-01-24T20:07:42.708Z,16.55
2019-01-24T20:10:14.065Z,16.82
2019-01-24T20:12:43.094Z,18.55
2019-01-24T20:15:13.055Z,17.10
2019-01-24T20:17:42.015Z,14.45
2019-01-24T20:20:11.767Z,16.35
2019-01-24T20:22:40.655Z,16.23
2019-01-24T20:25:11.086Z,18.45
2019-01-24T20:27:39.839Z,17.85
2019-01-24T20:30:11.023Z,20.80
2019-01-24T20:32:39.025Z,17.10
2019-01-24T20:35:14.583Z,18.48
2019-01-24T20:37:43.915Z,16.40
2019-01-24T20:40:12.962Z,15.85
2019-01-24T20:42:41.488Z,16.23
2019-01-24T20:45:09.819Z,16.27
2019-01-24T20:47:38.038Z,16.45
2019-01-24T20:50:07.564Z,15.30
2019-01-24T20:52:36.107Z,16.67
2019-01-24T20:55:04.956Z,15.08
2019-01-24T20:57:32.971Z,17.02
2019-01-24T21:00:00.911Z,19.30
2019-01-24T21:02:28.574Z,15.55
2019-01-24T21:04:57.490Z,17.95
2019-01-24T21:07:25.925Z,18.87
2019-01-24T21:09:58.108Z,18.15
2019-01-24T21:12:25.987Z,17.95
2019-01-24T21:14:55.173Z,18.10
2019-01-24T21:17:22.949Z,20.32
2019-01-24T21:19:53.560Z,18.65
2019-01-24T21:22:22.358Z,16.42
2019-01-24T21:24:50.325Z,18.52
2019-01-24T21:29:46.004Z,22.02
2019-01-24T21:32:13.755Z,20.15
2019-01-24T21:34:42.976Z,20.80
2019-01-24T21:37:10.816Z,20.27
2019-01-24T21:39:38.694Z,20.32
2019-01-24T21:42:06.582Z,19.55
2019-01-24T21:44:34.472Z,18.77
2019-01-24T21:47:02.265Z,19.85
2019-01-24T21:49:30.116Z,21.17
2019-01-24T21:51:58.008Z,24.18
2019-01-24T21:54:25.780Z,22.65
2019-01-24T21:56:53.793Z,22.25
2019-01-24T21:59:21.512Z,20.68
2019-01-24T22:01:49.180Z,20.10
2019-01-24T22:04:18.128Z,24.20
2019-01-24T22:06:46.009Z,22.62
2019-01-24T22:09:17.929Z,19.37
2019-01-24T22:11:49.143Z,20.88
2019-01-24T22:14:16.932Z,21.57
2019-01-24T22:16:48.179Z,20.65
2019-01-24T22:19:15.910Z,19.90
2019-01-24T22:21:43.891Z,20.75
2019-01-24T22:24:11.644Z,18.52
2019-01-24T22:26:39.333Z,18.87
2019-01-24T22:29:07.371Z,20.23
2019-01-24T22:31:35.429Z,18.48
2019-01-24T22:34:03.224Z,21.97
2019-01-24T22:36:31.088Z,21.45
2019-01-24T22:38:59.011Z,21.12
2019-01-24T22:41:26.703Z,20.70
2019-01-24T22:43:55.022Z,21.17
2019-01-24T22:46:22.918Z,20.40
2019-01-24T22:48:53.361Z,19.80
2019-01-24T22:51:23.274Z,21.00
2019-01-24T22:53:52.207Z,19.62
2019-01-24T22:56:20.115Z,20.48
2019-01-24T22:58:47.915Z,18.75
2019-01-24T23:01:51.084Z,20.37
2019-01-24T23:04:21.362Z,20.43
2019-01-24T23:06:49.238Z,21.45
2019-01-24T23:09:18.841Z,20.70
2019-01-24T23:11:52.857Z,21.52
2019-01-24T23:14:20.784Z,19.62
2019-01-24T23:16:49.802Z,20.68
2019-01-24T23:19:17.601Z,22.75
2019-01-24T23:21:46.298Z,19.77
2019-01-24T23:24:15.155Z,21.65
2019-01-24T23:26:47.855Z,23.50
2019-01-24T23:29:15.625Z,26.42
2019-01-24T23:31:44.683Z,24.77
2019-01-24T23:34:12.396Z,26.62
2019-01-24T23:36:41.102Z,22.52
2019-01-24T23:39:10.294Z,20.02
2019-01-24T23:41:38.246Z,21.02
2019-01-24T23:44:05.965Z,22.35
2019-01-24T23:46:33.992Z,21.33
2019-01-24T23:49:01.899Z,20.90
2019-01-24T23:51:29.780Z,23.47
2019-01-24T23:53:59.713Z,21.23
2019-01-24T23:56:27.456Z,21.33
2019-01-24T23:58:56.178Z,20.20
